sensor_id;sensor_type;location;lat;lon;timestamp;temperature;humidity
8643;DHT22;4359;49.358;11.256;2022-08-19T00:01:34;18.60;99.90
8643;DHT22;4359;49.358;11.256;2022-08-19T00:04:02;18.60;99.90
8643;DHT22;4359;49.358;11.256;2022-08-19T00:06:29;18.60;99.90
8643;DHT22;4359;49.358;11.256;2022-08-19T00:08:56;18.60;99.90
8643;DHT22;4359;49.358;11.256;2022-08-19T00:11:22;18.60;99.90
8643;DHT22;4359;49.358;11.256;2022-08-19T00:13:48;18.50;99.90
8643;DHT22;4359;49.358;11.256;2022-08-19T00:16:16;18.60;99.90
8643;DHT22;4359;49.358;11.256;2022-08-19T00:18:44;18.60;99.90
8643;DHT22;4359;49.358;11.256;2022-08-19T00:21:10;18.60;99.90
8643;DHT22;4359;49.358;11.256;2022-08-19T00:23:36;18.70;99.90
8643;DHT22;4359;49.358;11.256;2022-08-19T00:26:03;18.70;99.90
8643;DHT22;4359;49.358;11.256;2022-08-19T00:28:29;18.70;99.90
8643;DHT22;4359;49.358;11.256;2022-08-19T00:30:55;18.70;99.90
8643;DHT22;4359;49.358;11.256;2022-08-19T00:33:21;18.80;99.90
8643;DHT22;4359;49.358;11.256;2022-08-19T00:35:47;18.90;99.90
8643;DHT22;4359;49.358;11.256;2022-08-19T00:38:12;18.90;99.90
8643;DHT22;4359;49.358;11.256;2022-08-19T00:40:38;18.90;99.90
8643;DHT22;4359;49.358;11.256;2022-08-19T00:43:11;18.80;99.90
8643;DHT22;4359;49.358;11.256;2022-08-19T00:45:39;18.80;99.90
8643;DHT22;4359;49.358;11.256;2022-08-19T00:48:08;18.80;99.90
8643;DHT22;4359;49.358;11.256;2022-08-19T00:50:34;18.80;99.90
8643;DHT22;4359;49.358;11.256;2022-08-19T00:53:00;18.90;99.90
8643;DHT22;4359;49.358;11.256;2022-08-19T00:55:31;18.80;99.90
8643;DHT22;4359;49.358;11.256;2022-08-19T00:58:07;18.80;99.90
8643;DHT22;4359;49.358;11.256;2022-08-19T01:00:33;18.70;99.90
8643;DHT22;4359;49.358;11.256;2022-08-19T01:03:05;18.70;99.90
8643;DHT22;4359;49.358;11.256;2022-08-19T01:05:31;18.70;99.90
8643;DHT22;4359;49.358;11.256;2022-08-19T01:07:59;18.70;99.90
8643;DHT22;4359;49.358;11.256;2022-08-19T01:10:27;18.80;99.90
8643;DHT22;4359;49.358;11.256;2022-08-19T01:12:55;18.80;99.90
8643;DHT22;4359;49.358;11.256;2022-08-19T01:15:28;18.80;99.90
8643;DHT22;4359;49.358;11.256;2022-08-19T01:17:58;18.80;99.90
8643;DHT22;4359;49.358;11.256;2022-08-19T01:20:25;18.80;99.90
8643;DHT22;4359;49.358;11.256;2022-08-19T01:22:56;18.80;99.90
8643;DHT22;4359;49.358;11.256;2022-08-19T01:25:28;18.90;99.90
8643;DHT22;4359;49.358;11.256;2022-08-19T01:27:54;18.90;99.90
8643;DHT22;4359;49.358;11.256;2022-08-19T01:30:30;18.80;99.90
8643;DHT22;4359;49.358;11.256;2022-08-19T01:32:58;18.80;99.90
8643;DHT22;4359;49.358;11.256;2022-08-19T01:35:29;18.80;99.90
8643;DHT22;4359;49.358;11.256;2022-08-19T01:38:01;18.90;99.90
8643;DHT22;4359;49.358;11.256;2022-08-19T01:40:32;18.80;99.90
8643;DHT22;4359;49.358;11.256;2022-08-19T01:42:58;18.90;99.90
8643;DHT22;4359;49.358;11.256;2022-08-19T01:45:27;18.90;99.90
8643;DHT22;4359;49.358;11.256;2022-08-19T01:47:54;18.80;99.90
8643;DHT22;4359;49.358;11.256;2022-08-19T01:50:20;18.90;99.90
8643;DHT22;4359;49.358;11.256;2022-08-19T01:52:46;18.80;99.90
8643;DHT22;4359;49.358;11.256;2022-08-19T01:55:15;18.80;99.90
8643;DHT22;4359;49.358;11.256;2022-08-19T01:57:44;18.80;99.90
8643;DHT22;4359;49.358;11.256;2022-08-19T02:00:13;18.80;99.90
8643;DHT22;4359;49.358;11.256;2022-08-19T02:02:41;18.90;99.90
8643;DHT22;4359;49.358;11.256;2022-08-19T02:05:07;18.80;99.90
8643;DHT22;4359;49.358;11.256;2022-08-19T02:07:34;18.80;99.90
8643;DHT22;4359;49.358;11.256;2022-08-19T02:10:05;18.80;99.90
8643;DHT22;4359;49.358;11.256;2022-08-19T02:12:31;18.80;99.90
8643;DHT22;4359;49.358;11.256;2022-08-19T02:14:58;18.80;99.90
8643;DHT22;4359;49.358;11.256;2022-08-19T02:17:24;18.80;99.90
8643;DHT22;4359;49.358;11.256;2022-08-19T02:19:50;18.90;99.90
8643;DHT22;4359;49.358;11.256;2022-08-19T02:22:15;18.80;99.90
8643;DHT22;4359;49.358;11.256;2022-08-19T02:24:41;18.90;99.90
8643;DHT22;4359;49.358;11.256;2022-08-19T02:27:07;18.80;99.90
8643;DHT22;4359;49.358;11.256;2022-08-19T02:29:32;18.90;99.90
8643;DHT22;4359;49.358;11.256;2022-08-19T02:31:58;18.80;99.90
8643;DHT22;4359;49.358;11.256;2022-08-19T02:34:24;18.80;99.90
8643;DHT22;4359;49.358;11.256;2022-08-19T02:36:51;18.80;99.90
8643;DHT22;4359;49.358;11.256;2022-08-19T02:39:17;18.80;99.90
8643;DHT22;4359;49.358;11.256;2022-08-19T02:41:42;18.80;99.90
8643;DHT22;4359;49.358;11.256;2022-08-19T02:44:08;18.80;99.90
8643;DHT22;4359;49.358;11.256;2022-08-19T02:46:34;18.80;99.90
8643;DHT22;4359;49.358;11.256;2022-08-19T02:49:05;18.80;99.90
8643;DHT22;4359;49.358;11.256;2022-08-19T02:51:41;18.90;99.90
8643;DHT22;4359;49.358;11.256;2022-08-19T02:54:09;18.80;99.90
8643;DHT22;4359;49.358;11.256;2022-08-19T02:56:38;18.80;99.90
8643;DHT22;4359;49.358;11.256;2022-08-19T02:59:04;18.80;99.90
8643;DHT22;4359;49.358;11.256;2022-08-19T03:01:34;18.80;99.90
8643;DHT22;4359;49.358;11.256;2022-08-19T03:04:03;18.80;99.90
8643;DHT22;4359;49.358;11.256;2022-08-19T03:06:30;18.70;99.90
8643;DHT22;4359;49.358;11.256;2022-08-19T03:08:56;18.80;99.90
8643;DHT22;4359;49.358;11.256;2022-08-19T03:11:25;18.70;99.90
8643;DHT22;4359;49.358;11.256;2022-08-19T03:13:51;18.70;99.90
8643;DHT22;4359;49.358;11.256;2022-08-19T03:16:18;18.70;99.90
8643;DHT22;4359;49.358;11.256;2022-08-19T03:18:44;18.60;99.90
8643;DHT22;4359;49.358;11.256;2022-08-19T03:21:16;18.60;99.90
8643;DHT22;4359;49.358;11.256;2022-08-19T03:23:42;18.60;99.90
8643;DHT22;4359;49.358;11.256;2022-08-19T03:26:07;18.60;99.90
8643;DHT22;4359;49.358;11.256;2022-08-19T03:28:33;18.60;99.90
8643;DHT22;4359;49.358;11.256;2022-08-19T03:31:08;18.60;99.90
8643;DHT22;4359;49.358;11.256;2022-08-19T03:33:35;18.50;99.90
8643;DHT22;4359;49.358;11.256;2022-08-19T03:36:10;18.60;99.90
8643;DHT22;4359;49.358;11.256;2022-08-19T03:38:41;18.50;99.90
8643;DHT22;4359;49.358;11.256;2022-08-19T03:41:11;18.60;99.90
8643;DHT22;4359;49.358;11.256;2022-08-19T03:43:38;18.50;99.90
8643;DHT22;4359;49.358;11.256;2022-08-19T03:46:10;18.50;99.90
8643;DHT22;4359;49.358;11.256;2022-08-19T03:48:37;18.50;99.90
8643;DHT22;4359;49.358;11.256;2022-08-19T03:51:04;18.50;99.90
8643;DHT22;4359;49.358;11.256;2022-08-19T03:53:31;18.40;99.90
8643;DHT22;4359;49.358;11.256;2022-08-19T03:55:58;18.40;99.90
8643;DHT22;4359;49.358;11.256;2022-08-19T03:58:26;18.40;99.90
8643;DHT22;4359;49.358;11.256;2022-08-19T04:00:55;18.30;99.90
8643;DHT22;4359;49.358;11.256;2022-08-19T04:03:21;18.40;99.90
8643;DHT22;4359;49.358;11.256;2022-08-19T04:05:47;18.40;99.90
8643;DHT22;4359;49.358;11.256;2022-08-19T04:08:13;18.40;99.90
8643;DHT22;4359;49.358;11.256;2022-08-19T04:10:41;18.40;99.90
8643;DHT22;4359;49.358;11.256;2022-08-19T04:13:07;18.40;99.90
8643;DHT22;4359;49.358;11.256;2022-08-19T04:15:39;18.40;99.90
8643;DHT22;4359;49.358;11.256;2022-08-19T04:18:08;18.30;99.90
8643;DHT22;4359;49.358;11.256;2022-08-19T04:20:45;18.40;99.90
8643;DHT22;4359;49.358;11.256;2022-08-19T04:23:12;18.40;99.90
8643;DHT22;4359;49.358;11.256;2022-08-19T04:25:42;18.40;99.90
8643;DHT22;4359;49.358;11.256;2022-08-19T04:28:10;18.40;99.90
8643;DHT22;4359;49.358;11.256;2022-08-19T04:30:41;18.50;99.90
8643;DHT22;4359;49.358;11.256;2022-08-19T04:33:08;18.50;99.90
8643;DHT22;4359;49.358;11.256;2022-08-19T04:35:39;18.50;99.90
8643;DHT22;4359;49.358;11.256;2022-08-19T04:38:05;18.50;99.90
8643;DHT22;4359;49.358;11.256;2022-08-19T04:40:31;18.50;99.90
8643;DHT22;4359;49.358;11.256;2022-08-19T04:43:15;18.50;99.90
8643;DHT22;4359;49.358;11.256;2022-08-19T04:45:42;18.50;99.90
8643;DHT22;4359;49.358;11.256;2022-08-19T04:48:09;18.50;99.90
8643;DHT22;4359;49.358;11.256;2022-08-19T04:50:35;18.50;99.90
8643;DHT22;4359;49.358;11.256;2022-08-19T04:53:01;18.50;99.90
8643;DHT22;4359;49.358;11.256;2022-08-19T04:55:26;18.50;99.90
8643;DHT22;4359;49.358;11.256;2022-08-19T04:57:55;18.40;99.90
8643;DHT22;4359;49.358;11.256;2022-08-19T05:00:21;18.50;99.90
8643;DHT22;4359;49.358;11.256;2022-08-19T05:02:47;18.40;99.90
8643;DHT22;4359;49.358;11.256;2022-08-19T05:05:14;18.40;99.90
8643;DHT22;4359;49.358;11.256;2022-08-19T05:07:40;18.50;99.90
8643;DHT22;4359;49.358;11.256;2022-08-19T05:10:08;18.50;99.90
8643;DHT22;4359;49.358;11.256;2022-08-19T05:12:34;18.50;99.90
8643;DHT22;4359;49.358;11.256;2022-08-19T05:15:01;18.60;99.90
8643;DHT22;4359;49.358;11.256;2022-08-19T05:17:28;18.60;99.90
8643;DHT22;4359;49.358;11.256;2022-08-19T05:19:54;18.60;99.90
8643;DHT22;4359;49.358;11.256;2022-08-19T05:22:39;18.50;99.90
8643;DHT22;4359;49.358;11.256;2022-08-19T05:25:09;18.60;99.90
8643;DHT22;4359;49.358;11.256;2022-08-19T05:27:35;18.60;99.90
8643;DHT22;4359;49.358;11.256;2022-08-19T05:30:04;18.60;99.90
8643;DHT22;4359;49.358;11.256;2022-08-19T05:32:29;18.60;99.90
8643;DHT22;4359;49.358;11.256;2022-08-19T05:34:55;18.60;99.90
8643;DHT22;4359;49.358;11.256;2022-08-19T05:37:21;18.70;99.90
8643;DHT22;4359;49.358;11.256;2022-08-19T05:39:47;18.70;99.90
8643;DHT22;4359;49.358;11.256;2022-08-19T05:42:15;18.70;99.90
8643;DHT22;4359;49.358;11.256;2022-08-19T05:44:44;18.70;99.90
8643;DHT22;4359;49.358;11.256;2022-08-19T05:47:12;18.70;99.90
8643;DHT22;4359;49.358;11.256;2022-08-19T05:49:38;18.70;99.90
8643;DHT22;4359;49.358;11.256;2022-08-19T05:52:08;18.80;99.90
8643;DHT22;4359;49.358;11.256;2022-08-19T05:54:34;18.90;99.90
8643;DHT22;4359;49.358;11.256;2022-08-19T05:57:03;18.90;99.90
8643;DHT22;4359;49.358;11.256;2022-08-19T05:59:28;19.00;99.90
8643;DHT22;4359;49.358;11.256;2022-08-19T06:01:54;19.00;99.90
8643;DHT22;4359;49.358;11.256;2022-08-19T06:04:23;19.00;99.90
8643;DHT22;4359;49.358;11.256;2022-08-19T06:06:50;19.00;99.90
8643;DHT22;4359;49.358;11.256;2022-08-19T06:09:20;19.00;99.90
8643;DHT22;4359;49.358;11.256;2022-08-19T06:11:52;19.10;99.90
8643;DHT22;4359;49.358;11.256;2022-08-19T06:14:22;19.10;99.90
8643;DHT22;4359;49.358;11.256;2022-08-19T06:16:48;19.20;99.90
8643;DHT22;4359;49.358;11.256;2022-08-19T06:19:18;19.30;99.90
8643;DHT22;4359;49.358;11.256;2022-08-19T06:21:46;19.40;99.90
8643;DHT22;4359;49.358;11.256;2022-08-19T06:24:15;19.50;99.90
8643;DHT22;4359;49.358;11.256;2022-08-19T06:26:43;19.70;99.90
8643;DHT22;4359;49.358;11.256;2022-08-19T06:29:11;19.80;99.90
8643;DHT22;4359;49.358;11.256;2022-08-19T06:31:42;19.80;99.90
8643;DHT22;4359;49.358;11.256;2022-08-19T06:34:08;19.90;99.90
8643;DHT22;4359;49.358;11.256;2022-08-19T06:36:42;20.00;99.90
8643;DHT22;4359;49.358;11.256;2022-08-19T06:39:30;20.00;99.90
8643;DHT22;4359;49.358;11.256;2022-08-19T06:41:59;20.00;99.90
8643;DHT22;4359;49.358;11.256;2022-08-19T06:44:28;20.10;99.90
8643;DHT22;4359;49.358;11.256;2022-08-19T06:46:55;20.10;99.90
8643;DHT22;4359;49.358;11.256;2022-08-19T06:49:22;20.20;99.90
8643;DHT22;4359;49.358;11.256;2022-08-19T06:51:48;20.20;99.90
8643;DHT22;4359;49.358;11.256;2022-08-19T06:54:15;20.40;99.90
8643;DHT22;4359;49.358;11.256;2022-08-19T06:56:42;20.50;99.90
8643;DHT22;4359;49.358;11.256;2022-08-19T06:59:18;20.60;99.90
8643;DHT22;4359;49.358;11.256;2022-08-19T07:01:50;20.80;99.90
8643;DHT22;4359;49.358;11.256;2022-08-19T07:04:18;20.60;99.90
8643;DHT22;4359;49.358;11.256;2022-08-19T07:06:47;20.50;99.90
8643;DHT22;4359;49.358;11.256;2022-08-19T07:09:16;20.30;99.90
8643;DHT22;4359;49.358;11.256;2022-08-19T07:11:47;20.20;99.90
8643;DHT22;4359;49.358;11.256;2022-08-19T07:14:15;20.10;99.90
8643;DHT22;4359;49.358;11.256;2022-08-19T07:16:44;20.00;99.90
8643;DHT22;4359;49.358;11.256;2022-08-19T07:19:11;19.80;99.90
8643;DHT22;4359;49.358;11.256;2022-08-19T07:21:38;19.90;99.90
8643;DHT22;4359;49.358;11.256;2022-08-19T07:24:04;19.90;99.90
8643;DHT22;4359;49.358;11.256;2022-08-19T07:26:32;19.90;99.90
8643;DHT22;4359;49.358;11.256;2022-08-19T07:28:59;19.90;99.90
8643;DHT22;4359;49.358;11.256;2022-08-19T07:31:27;20.00;99.90
8643;DHT22;4359;49.358;11.256;2022-08-19T07:33:55;20.00;99.90
8643;DHT22;4359;49.358;11.256;2022-08-19T07:36:25;20.10;99.90
8643;DHT22;4359;49.358;11.256;2022-08-19T07:38:52;20.00;99.90
8643;DHT22;4359;49.358;11.256;2022-08-19T07:41:25;20.10;99.90
8643;DHT22;4359;49.358;11.256;2022-08-19T07:43:52;20.30;99.90
8643;DHT22;4359;49.358;11.256;2022-08-19T07:46:18;20.30;99.90
8643;DHT22;4359;49.358;11.256;2022-08-19T07:48:47;20.30;99.90
8643;DHT22;4359;49.358;11.256;2022-08-19T07:51:17;20.20;99.90
8643;DHT22;4359;49.358;11.256;2022-08-19T07:53:43;20.20;99.90
8643;DHT22;4359;49.358;11.256;2022-08-19T07:56:12;20.20;99.90
8643;DHT22;4359;49.358;11.256;2022-08-19T07:58:41;20.20;99.90
8643;DHT22;4359;49.358;11.256;2022-08-19T08:01:08;20.20;99.90
8643;DHT22;4359;49.358;11.256;2022-08-19T08:03:36;20.30;99.90
8643;DHT22;4359;49.358;11.256;2022-08-19T08:06:21;20.30;99.90
8643;DHT22;4359;49.358;11.256;2022-08-19T08:09:05;20.20;99.90
8643;DHT22;4359;49.358;11.256;2022-08-19T08:11:43;20.30;99.90
8643;DHT22;4359;49.358;11.256;2022-08-19T08:14:28;20.40;99.90
8643;DHT22;4359;49.358;11.256;2022-08-19T08:16:54;20.40;99.90
8643;DHT22;4359;49.358;11.256;2022-08-19T08:19:22;20.50;99.90
8643;DHT22;4359;49.358;11.256;2022-08-19T08:21:49;20.60;99.90
8643;DHT22;4359;49.358;11.256;2022-08-19T08:24:15;20.70;99.90
8643;DHT22;4359;49.358;11.256;2022-08-19T08:26:41;20.80;99.90
8643;DHT22;4359;49.358;11.256;2022-08-19T08:29:08;20.90;99.90
8643;DHT22;4359;49.358;11.256;2022-08-19T08:31:37;20.80;99.90
8643;DHT22;4359;49.358;11.256;2022-08-19T08:34:03;20.70;99.90
8643;DHT22;4359;49.358;11.256;2022-08-19T08:36:29;20.60;99.90
8643;DHT22;4359;49.358;11.256;2022-08-19T08:38:59;20.50;99.90
8643;DHT22;4359;49.358;11.256;2022-08-19T08:41:30;20.60;99.90
8643;DHT22;4359;49.358;11.256;2022-08-19T08:44:00;20.80;99.90
8643;DHT22;4359;49.358;11.256;2022-08-19T08:46:34;20.80;99.90
8643;DHT22;4359;49.358;11.256;2022-08-19T08:49:13;21.00;99.90
8643;DHT22;4359;49.358;11.256;2022-08-19T08:51:47;21.00;99.90
8643;DHT22;4359;49.358;11.256;2022-08-19T08:54:17;21.00;99.90
8643;DHT22;4359;49.358;11.256;2022-08-19T08:56:45;21.10;99.90
8643;DHT22;4359;49.358;11.256;2022-08-19T08:59:28;21.20;99.90
8643;DHT22;4359;49.358;11.256;2022-08-19T09:01:57;21.10;99.90
8643;DHT22;4359;49.358;11.256;2022-08-19T09:04:22;21.10;99.90
8643;DHT22;4359;49.358;11.256;2022-08-19T09:06:53;20.90;99.90
8643;DHT22;4359;49.358;11.256;2022-08-19T09:09:32;20.90;99.90
8643;DHT22;4359;49.358;11.256;2022-08-19T09:12:32;20.80;99.90
8643;DHT22;4359;49.358;11.256;2022-08-19T09:15:08;20.70;99.90
8643;DHT22;4359;49.358;11.256;2022-08-19T09:17:35;20.70;99.90
8643;DHT22;4359;49.358;11.256;2022-08-19T09:22:40;20.60;99.90
8643;DHT22;4359;49.358;11.256;2022-08-19T09:25:08;20.70;99.90
8643;DHT22;4359;49.358;11.256;2022-08-19T09:27:36;20.80;99.90
8643;DHT22;4359;49.358;11.256;2022-08-19T09:30:04;21.00;99.90
8643;DHT22;4359;49.358;11.256;2022-08-19T09:32:31;21.00;99.90
8643;DHT22;4359;49.358;11.256;2022-08-19T09:34:56;21.10;99.90
8643;DHT22;4359;49.358;11.256;2022-08-19T09:37:24;21.20;99.90
8643;DHT22;4359;49.358;11.256;2022-08-19T09:39:50;21.30;99.90
8643;DHT22;4359;49.358;11.256;2022-08-19T09:42:16;21.50;99.90
8643;DHT22;4359;49.358;11.256;2022-08-19T09:44:43;21.70;99.90
8643;DHT22;4359;49.358;11.256;2022-08-19T09:47:10;21.70;99.90
8643;DHT22;4359;49.358;11.256;2022-08-19T09:49:37;21.70;99.90
8643;DHT22;4359;49.358;11.256;2022-08-19T09:52:04;21.60;99.90
8643;DHT22;4359;49.358;11.256;2022-08-19T09:54:30;21.50;99.90
8643;DHT22;4359;49.358;11.256;2022-08-19T09:56:58;21.40;99.90
8643;DHT22;4359;49.358;11.256;2022-08-19T09:59:24;21.20;99.90
8643;DHT22;4359;49.358;11.256;2022-08-19T10:01:49;21.10;99.90
8643;DHT22;4359;49.358;11.256;2022-08-19T10:04:16;21.20;99.90
8643;DHT22;4359;49.358;11.256;2022-08-19T10:06:42;21.30;99.90
8643;DHT22;4359;49.358;11.256;2022-08-19T10:09:09;21.20;99.90
8643;DHT22;4359;49.358;11.256;2022-08-19T10:11:36;21.20;99.90
8643;DHT22;4359;49.358;11.256;2022-08-19T10:14:04;21.20;99.90
8643;DHT22;4359;49.358;11.256;2022-08-19T10:16:31;21.10;99.90
8643;DHT22;4359;49.358;11.256;2022-08-19T10:18:57;20.90;99.90
8643;DHT22;4359;49.358;11.256;2022-08-19T10:21:25;20.80;99.90
8643;DHT22;4359;49.358;11.256;2022-08-19T10:23:54;20.70;99.90
8643;DHT22;4359;49.358;11.256;2022-08-19T10:26:27;20.50;99.90
8643;DHT22;4359;49.358;11.256;2022-08-19T10:28:53;20.50;99.90
8643;DHT22;4359;49.358;11.256;2022-08-19T10:31:22;20.40;99.90
8643;DHT22;4359;49.358;11.256;2022-08-19T10:33:49;20.40;99.90
8643;DHT22;4359;49.358;11.256;2022-08-19T10:36:21;20.40;99.90
8643;DHT22;4359;49.358;11.256;2022-08-19T10:38:50;20.40;99.90
8643;DHT22;4359;49.358;11.256;2022-08-19T10:41:21;20.40;99.90
8643;DHT22;4359;49.358;11.256;2022-08-19T10:43:51;20.50;99.90
8643;DHT22;4359;49.358;11.256;2022-08-19T10:46:21;20.40;99.90
8643;DHT22;4359;49.358;11.256;2022-08-19T10:48:47;20.40;99.90
8643;DHT22;4359;49.358;11.256;2022-08-19T10:51:13;20.50;99.90
8643;DHT22;4359;49.358;11.256;2022-08-19T10:53:58;20.50;99.90
8643;DHT22;4359;49.358;11.256;2022-08-19T10:56:26;20.50;99.90
8643;DHT22;4359;49.358;11.256;2022-08-19T10:59:11;20.60;99.90
8643;DHT22;4359;49.358;11.256;2022-08-19T11:01:39;20.70;99.90
8643;DHT22;4359;49.358;11.256;2022-08-19T11:04:05;20.60;99.90
8643;DHT22;4359;49.358;11.256;2022-08-19T11:06:34;20.60;99.90
8643;DHT22;4359;49.358;11.256;2022-08-19T11:09:00;20.60;99.90
8643;DHT22;4359;49.358;11.256;2022-08-19T11:11:26;20.70;99.90
8643;DHT22;4359;49.358;11.256;2022-08-19T11:13:53;20.60;99.90
8643;DHT22;4359;49.358;11.256;2022-08-19T11:16:21;20.50;99.90
8643;DHT22;4359;49.358;11.256;2022-08-19T11:18:51;20.40;99.90
8643;DHT22;4359;49.358;11.256;2022-08-19T11:21:38;20.40;99.90
8643;DHT22;4359;49.358;11.256;2022-08-19T11:24:08;20.30;99.90
8643;DHT22;4359;49.358;11.256;2022-08-19T11:26:36;20.30;99.90
8643;DHT22;4359;49.358;11.256;2022-08-19T11:29:03;20.20;99.90
8643;DHT22;4359;49.358;11.256;2022-08-19T11:31:32;20.20;99.90
8643;DHT22;4359;49.358;11.256;2022-08-19T11:34:00;20.20;99.90
8643;DHT22;4359;49.358;11.256;2022-08-19T11:36:27;20.30;99.90
8643;DHT22;4359;49.358;11.256;2022-08-19T11:38:54;20.40;99.90
8643;DHT22;4359;49.358;11.256;2022-08-19T11:41:21;20.40;99.90
8643;DHT22;4359;49.358;11.256;2022-08-19T11:43:49;20.50;99.90
8643;DHT22;4359;49.358;11.256;2022-08-19T11:46:16;20.50;99.90
8643;DHT22;4359;49.358;11.256;2022-08-19T11:48:42;20.50;99.90
8643;DHT22;4359;49.358;11.256;2022-08-19T11:51:11;20.40;99.90
8643;DHT22;4359;49.358;11.256;2022-08-19T11:53:38;20.40;99.90
8643;DHT22;4359;49.358;11.256;2022-08-19T11:56:05;20.50;99.90
8643;DHT22;4359;49.358;11.256;2022-08-19T11:58:31;20.50;99.90
8643;DHT22;4359;49.358;11.256;2022-08-19T12:00:57;20.40;99.90
8643;DHT22;4359;49.358;11.256;2022-08-19T12:03:23;20.30;99.90
8643;DHT22;4359;49.358;11.256;2022-08-19T12:05:49;20.20;99.90
8643;DHT22;4359;49.358;11.256;2022-08-19T12:08:16;20.10;99.90
8643;DHT22;4359;49.358;11.256;2022-08-19T12:10:42;20.10;99.90
8643;DHT22;4359;49.358;11.256;2022-08-19T12:13:12;20.00;99.90
8643;DHT22;4359;49.358;11.256;2022-08-19T12:15:41;19.90;99.90
8643;DHT22;4359;49.358;11.256;2022-08-19T12:18:07;19.80;99.90
8643;DHT22;4359;49.358;11.256;2022-08-19T12:20:38;19.70;99.90
8643;DHT22;4359;49.358;11.256;2022-08-19T12:23:05;19.70;99.90
8643;DHT22;4359;49.358;11.256;2022-08-19T12:25:32;19.60;99.90
8643;DHT22;4359;49.358;11.256;2022-08-19T12:27:58;19.50;99.90
8643;DHT22;4359;49.358;11.256;2022-08-19T12:30:24;19.40;99.90
8643;DHT22;4359;49.358;11.256;2022-08-19T12:32:51;19.30;99.90
8643;DHT22;4359;49.358;11.256;2022-08-19T12:35:17;19.30;99.90
8643;DHT22;4359;49.358;11.256;2022-08-19T12:37:46;19.50;99.90
8643;DHT22;4359;49.358;11.256;2022-08-19T12:40:13;19.60;99.90
8643;DHT22;4359;49.358;11.256;2022-08-19T12:42:39;19.70;99.90
8643;DHT22;4359;49.358;11.256;2022-08-19T12:45:12;19.80;99.90
8643;DHT22;4359;49.358;11.256;2022-08-19T12:47:39;19.90;99.90
8643;DHT22;4359;49.358;11.256;2022-08-19T12:50:05;19.90;99.90
8643;DHT22;4359;49.358;11.256;2022-08-19T12:52:35;19.90;99.90
8643;DHT22;4359;49.358;11.256;2022-08-19T12:55:04;20.00;99.90
8643;DHT22;4359;49.358;11.256;2022-08-19T12:57:30;20.00;99.90
8643;DHT22;4359;49.358;11.256;2022-08-19T13:00:03;20.10;99.90
8643;DHT22;4359;49.358;11.256;2022-08-19T13:02:31;20.20;99.90
8643;DHT22;4359;49.358;11.256;2022-08-19T13:04:57;20.20;99.90
8643;DHT22;4359;49.358;11.256;2022-08-19T13:07:23;20.10;99.90
8643;DHT22;4359;49.358;11.256;2022-08-19T13:09:51;20.10;99.90
8643;DHT22;4359;49.358;11.256;2022-08-19T13:12:17;20.10;99.90
8643;DHT22;4359;49.358;11.256;2022-08-19T13:14:45;20.10;99.90
8643;DHT22;4359;49.358;11.256;2022-08-19T13:17:16;20.10;99.90
8643;DHT22;4359;49.358;11.256;2022-08-19T13:19:42;20.10;99.90
8643;DHT22;4359;49.358;11.256;2022-08-19T13:22:07;20.20;99.90
8643;DHT22;4359;49.358;11.256;2022-08-19T13:24:33;20.30;99.90
8643;DHT22;4359;49.358;11.256;2022-08-19T13:27:02;20.20;99.90
8643;DHT22;4359;49.358;11.256;2022-08-19T13:29:28;20.20;99.90
8643;DHT22;4359;49.358;11.256;2022-08-19T13:32:12;20.20;99.90
8643;DHT22;4359;49.358;11.256;2022-08-19T13:34:56;20.30;99.90
8643;DHT22;4359;49.358;11.256;2022-08-19T13:37:22;20.40;99.90
8643;DHT22;4359;49.358;11.256;2022-08-19T13:40:07;20.30;99.90
8643;DHT22;4359;49.358;11.256;2022-08-19T13:42:36;20.20;99.90
8643;DHT22;4359;49.358;11.256;2022-08-19T13:45:02;20.30;99.90
8643;DHT22;4359;49.358;11.256;2022-08-19T13:47:30;20.20;99.90
8643;DHT22;4359;49.358;11.256;2022-08-19T13:49:55;20.20;99.90
8643;DHT22;4359;49.358;11.256;2022-08-19T13:52:21;20.20;99.90
8643;DHT22;4359;49.358;11.256;2022-08-19T13:54:47;20.20;99.90
8643;DHT22;4359;49.358;11.256;2022-08-19T13:57:13;20.20;99.90
8643;DHT22;4359;49.358;11.256;2022-08-19T13:59:42;20.20;99.90
8643;DHT22;4359;49.358;11.256;2022-08-19T14:02:08;20.10;99.90
8643;DHT22;4359;49.358;11.256;2022-08-19T14:04:33;20.10;99.90
8643;DHT22;4359;49.358;11.256;2022-08-19T14:06:59;20.10;99.90
8643;DHT22;4359;49.358;11.256;2022-08-19T14:09:25;20.10;99.90
8643;DHT22;4359;49.358;11.256;2022-08-19T14:11:50;20.10;99.90
8643;DHT22;4359;49.358;11.256;2022-08-19T14:14:16;20.00;99.90
8643;DHT22;4359;49.358;11.256;2022-08-19T14:16:42;20.10;99.90
8643;DHT22;4359;49.358;11.256;2022-08-19T14:19:08;19.90;99.90
8643;DHT22;4359;49.358;11.256;2022-08-19T14:21:33;19.80;99.90
8643;DHT22;4359;49.358;11.256;2022-08-19T14:24:00;19.80;99.90
8643;DHT22;4359;49.358;11.256;2022-08-19T14:26:26;19.70;99.90
8643;DHT22;4359;49.358;11.256;2022-08-19T14:28:52;19.60;99.90
8643;DHT22;4359;49.358;11.256;2022-08-19T14:31:19;19.60;99.90
8643;DHT22;4359;49.358;11.256;2022-08-19T14:33:46;19.50;99.90
8643;DHT22;4359;49.358;11.256;2022-08-19T14:36:12;19.50;99.90
8643;DHT22;4359;49.358;11.256;2022-08-19T14:38:38;19.50;99.90
8643;DHT22;4359;49.358;11.256;2022-08-19T14:41:08;19.50;99.90
8643;DHT22;4359;49.358;11.256;2022-08-19T14:43:34;19.50;99.90
8643;DHT22;4359;49.358;11.256;2022-08-19T14:46:00;19.50;99.90
8643;DHT22;4359;49.358;11.256;2022-08-19T14:48:25;19.50;99.90
8643;DHT22;4359;49.358;11.256;2022-08-19T14:50:51;19.50;99.90
8643;DHT22;4359;49.358;11.256;2022-08-19T14:53:17;19.50;99.90
8643;DHT22;4359;49.358;11.256;2022-08-19T14:55:44;19.50;99.90
8643;DHT22;4359;49.358;11.256;2022-08-19T14:58:11;19.50;99.90
8643;DHT22;4359;49.358;11.256;2022-08-19T15:00:37;19.30;99.90
8643;DHT22;4359;49.358;11.256;2022-08-19T15:03:03;19.30;99.90
8643;DHT22;4359;49.358;11.256;2022-08-19T15:05:29;19.20;99.90
8643;DHT22;4359;49.358;11.256;2022-08-19T15:07:55;19.20;99.90
8643;DHT22;4359;49.358;11.256;2022-08-19T15:10:22;19.20;99.90
8643;DHT22;4359;49.358;11.256;2022-08-19T15:12:48;19.20;99.90
8643;DHT22;4359;49.358;11.256;2022-08-19T15:15:15;19.10;99.90
8643;DHT22;4359;49.358;11.256;2022-08-19T15:17:43;19.10;99.90
8643;DHT22;4359;49.358;11.256;2022-08-19T15:20:11;19.10;99.90
8643;DHT22;4359;49.358;11.256;2022-08-19T15:22:38;19.00;99.90
8643;DHT22;4359;49.358;11.256;2022-08-19T15:25:05;19.00;99.90
8643;DHT22;4359;49.358;11.256;2022-08-19T15:27:32;18.90;99.90
8643;DHT22;4359;49.358;11.256;2022-08-19T15:29:57;18.90;99.90
8643;DHT22;4359;49.358;11.256;2022-08-19T15:32:24;18.90;99.90
8643;DHT22;4359;49.358;11.256;2022-08-19T15:34:51;18.80;99.90
8643;DHT22;4359;49.358;11.256;2022-08-19T15:37:17;18.80;99.90
8643;DHT22;4359;49.358;11.256;2022-08-19T15:39:43;18.80;99.90
8643;DHT22;4359;49.358;11.256;2022-08-19T15:42:08;18.80;99.90
8643;DHT22;4359;49.358;11.256;2022-08-19T15:44:34;18.70;99.90
8643;DHT22;4359;49.358;11.256;2022-08-19T15:46:59;18.70;99.90
8643;DHT22;4359;49.358;11.256;2022-08-19T15:49:25;18.60;99.90
8643;DHT22;4359;49.358;11.256;2022-08-19T15:51:51;18.60;99.90
8643;DHT22;4359;49.358;11.256;2022-08-19T15:54:22;18.60;99.90